Главная страница
METAR-TAF:

METAR-TAF

Аэропорты :

Кристиансунн, Норвегия

широта: 63-07N, долгота: 007-50E, высота над уровнем моря: 6 м

Текущие метеонаблюдения

Эта сводка был подготовлена 24 минут назад, в 14:20 UTC
Ветер 3 Узел переменных направлений
Температура 3°C
Влажность 65%
Давление 1021 hPa
Видимость 10 км и более
небольшая облачность на высоте 2700 фута
Отдельные облака на высоте 4000 фута

METAR: ENKB 151420Z VRB03KT 9999 FEW027 SCT040 03/M03 Q1021 RMK WIND 745FT 22006KT

Время: 15:44 (14:44 UTC)

Прогноз

Эта сводка был подготовлена 3 часа и 44 минут назад, в 11:00 UTC
Прогноз действительный с 15-го 12 UTC до 15-го 21 UTC
Ветер 5 Узел от восточно-юго-восточный
Видимость 10 км и более
Отдельные облака на высоте 3000 фута
временами
С 15-го 12 UTC до 15-го 14 UTC
Рассеянная облачность на высоте 2000 фута, Кучево-дождевые.

TAF: ENKB 151100Z 1512/1521 12005KT 9999 SCT030 TEMPO 1512/1514 BKN020CB

Метеонаблюдения и прогнозы для более 4000 аэропортов (сводки METAR и TAF).

Имеющиеся станции представлены на карте желтыми и красными точками.

Чтобы увидеть название станции, наведите на нее мышь.

Затем щелкните, чтобы увидеть метеонаблюдения и метеопрогнозы.

Управление картой: чтобы увеличить масштаб, щелкните зеленые кнопки с черным крестиком; чтобы уменьшить масштаб, щелкните зеленую кнопку с тире; для просмотра соседних карт щелкайте зеленые стрелки.


METAR-TAF: